createdAt,value
2023-05-14T00:02:54.943Z,65.56
2023-05-14T00:05:57.264Z,65.52
2023-05-14T00:09:02.242Z,65.61
2023-05-14T00:12:04.706Z,66.31
2023-05-14T00:15:07.624Z,66.24
2023-05-14T00:18:12.215Z,66.25
2023-05-14T00:21:14.576Z,66.51
2023-05-14T00:24:16.852Z,66.30
2023-05-14T00:27:19.148Z,66.50
2023-05-14T00:30:21.658Z,66.00
2023-05-14T00:33:24.182Z,66.01
2023-05-14T00:36:26.407Z,67.02
2023-05-14T00:39:28.706Z,65.72
2023-05-14T00:42:31.002Z,65.23
2023-05-14T00:45:33.279Z,65.09
2023-05-14T00:48:35.981Z,65.64
2023-05-14T00:51:38.839Z,65.04
2023-05-14T00:54:41.293Z,66.25
2023-05-14T00:57:44.079Z,65.46
2023-05-14T01:00:46.363Z,65.50
2023-05-14T01:03:49.131Z,66.25
2023-05-14T01:07:31.489Z,66.54
2023-05-14T01:11:03.620Z,67.10
2023-05-14T01:14:12.195Z,67.85
2023-05-14T01:17:19.993Z,68.56
2023-05-14T01:20:22.816Z,69.21
2023-05-14T01:23:25.208Z,68.90
2023-05-14T01:26:28.200Z,69.04
2023-05-14T01:29:32.374Z,68.60
2023-05-14T01:32:35.153Z,68.92
2023-05-14T01:35:37.612Z,68.79
2023-05-14T01:38:40.106Z,69.06
2023-05-14T01:41:42.852Z,69.48
2023-05-14T01:44:45.260Z,69.08
2023-05-14T01:47:47.639Z,69.47
2023-05-14T01:50:49.972Z,68.82
2023-05-14T01:53:52.392Z,68.99
2023-05-14T01:56:55.931Z,68.92
2023-05-14T01:59:58.736Z,68.38
2023-05-14T02:03:01.095Z,68.49
2023-05-14T02:06:03.520Z,68.33
2023-05-14T02:09:06.060Z,68.41
2023-05-14T02:12:09.298Z,67.85
2023-05-14T02:15:11.930Z,67.65
2023-05-14T02:18:14.454Z,67.38
2023-05-14T02:21:16.684Z,68.63
2023-05-14T02:24:19.178Z,67.36
2023-05-14T02:27:21.937Z,68.27
2023-05-14T02:30:24.430Z,67.28
2023-05-14T02:33:27.403Z,66.76
2023-05-14T02:36:30.054Z,67.34
2023-05-14T02:39:32.395Z,67.84
2023-05-14T02:42:35.380Z,67.82
2023-05-14T02:45:37.787Z,67.43
2023-05-14T02:48:40.341Z,66.66
2023-05-14T02:51:42.636Z,66.91
2023-05-14T02:54:44.905Z,66.63
2023-05-14T02:57:47.204Z,66.74
2023-05-14T03:00:49.501Z,67.10
2023-05-14T03:03:52.655Z,67.65
2023-05-14T03:06:55.099Z,66.63
2023-05-14T03:09:57.383Z,67.90
2023-05-14T03:12:59.726Z,67.50
2023-05-14T03:16:01.997Z,67.62
2023-05-14T03:19:04.409Z,67.57
2023-05-14T03:22:06.786Z,67.66
2023-05-14T03:25:09.319Z,66.47
2023-05-14T03:28:11.613Z,66.21
2023-05-14T03:31:14.133Z,66.70
2023-05-14T03:34:16.710Z,66.41
2023-05-14T03:37:18.975Z,66.49
2023-05-14T03:40:21.755Z,66.21
2023-05-14T03:43:24.196Z,65.61
2023-05-14T03:46:26.389Z,65.48
2023-05-14T03:49:29.115Z,65.92
2023-05-14T03:52:31.991Z,66.17
2023-05-14T03:55:34.325Z,64.84
2023-05-14T03:58:37.147Z,65.44
2023-05-14T04:01:39.437Z,66.03
2023-05-14T04:04:42.390Z,66.09
2023-05-14T04:07:45.924Z,66.36
2023-05-14T04:10:48.423Z,65.60
2023-05-14T04:13:50.738Z,65.67
2023-05-14T04:16:53.073Z,65.92
2023-05-14T04:19:55.357Z,65.95
2023-05-14T04:22:57.604Z,65.45
2023-05-14T04:25:59.843Z,65.81
2023-05-14T04:29:03.481Z,65.56
2023-05-14T04:32:06.756Z,65.21
2023-05-14T04:35:10.347Z,64.82
2023-05-14T04:38:14.226Z,64.70
2023-05-14T04:41:16.502Z,65.15
2023-05-14T04:44:18.717Z,64.82
2023-05-14T04:47:21.236Z,64.98
2023-05-14T04:50:23.648Z,65.13
2023-05-14T04:53:26.107Z,64.52
2023-05-14T04:56:28.425Z,65.09
2023-05-14T04:59:31.466Z,64.16
2023-05-14T05:02:34.854Z,64.92
2023-05-14T05:05:37.248Z,64.26
2023-05-14T05:08:39.962Z,64.58
2023-05-14T05:11:42.353Z,63.70
2023-05-14T05:14:44.649Z,64.11
2023-05-14T05:17:47.014Z,63.66
2023-05-14T05:20:49.357Z,64.13
2023-05-14T05:23:51.774Z,64.07
2023-05-14T05:26:55.809Z,64.23
2023-05-14T05:29:58.099Z,64.57
2023-05-14T05:33:01.489Z,64.73
2023-05-14T05:36:04.132Z,64.61
2023-05-14T05:39:06.553Z,64.53
2023-05-14T05:42:08.854Z,64.80
2023-05-14T05:45:11.232Z,64.61
2023-05-14T05:48:13.628Z,64.59
2023-05-14T05:51:15.948Z,64.38
2023-05-14T05:54:18.188Z,64.80
2023-05-14T05:57:23.641Z,64.56
2023-05-14T06:00:27.537Z,63.95
2023-05-14T06:03:29.914Z,64.24
2023-05-14T06:06:33.080Z,63.44
2023-05-14T06:09:35.536Z,63.76
2023-05-14T06:12:37.798Z,65.32
2023-05-14T06:15:40.152Z,65.15
2023-05-14T06:18:42.402Z,65.60
2023-05-14T06:21:44.699Z,64.99
2023-05-14T06:24:47.829Z,64.88
2023-05-14T06:27:50.128Z,65.44
2023-05-14T06:30:54.088Z,65.04
2023-05-14T06:33:57.999Z,65.43
2023-05-14T06:37:02.820Z,65.69
2023-05-14T06:40:05.757Z,65.01
2023-05-14T06:43:08.033Z,66.30
2023-05-14T06:46:10.717Z,65.53
2023-05-14T06:49:13.048Z,66.80
2023-05-14T06:52:15.484Z,65.35
2023-05-14T06:55:17.870Z,65.55
2023-05-14T06:58:20.169Z,65.14
2023-05-14T07:01:22.608Z,64.72
2023-05-14T07:04:24.920Z,65.02
2023-05-14T07:07:27.185Z,65.13
2023-05-14T07:10:30.964Z,64.55
2023-05-14T07:13:33.440Z,64.93
2023-05-14T07:16:36.096Z,64.35
2023-05-14T07:19:38.418Z,63.84
2023-05-14T07:22:40.930Z,64.22
2023-05-14T07:25:43.227Z,63.89
2023-05-14T07:28:45.521Z,64.57
2023-05-14T07:31:47.925Z,64.10
2023-05-14T07:34:50.264Z,65.44
2023-05-14T07:37:52.850Z,64.77
2023-05-14T07:40:55.224Z,64.53
2023-05-14T07:43:57.492Z,64.72
2023-05-14T07:46:59.789Z,65.46
2023-05-14T07:50:02.077Z,65.74
2023-05-14T07:53:04.311Z,65.52
2023-05-14T07:56:07.096Z,65.67
2023-05-14T07:59:09.362Z,65.53
2023-05-14T08:02:12.970Z,65.74
2023-05-14T08:05:15.970Z,66.09
2023-05-14T08:08:18.429Z,66.88
2023-05-14T08:11:21.528Z,65.54
2023-05-14T08:14:23.808Z,66.32
2023-05-14T08:17:26.251Z,66.17
2023-05-14T08:20:28.843Z,66.91
2023-05-14T08:23:31.214Z,67.69
2023-05-14T08:26:33.491Z,67.50
2023-05-14T08:29:35.973Z,67.98
2023-05-14T08:32:38.750Z,67.77
2023-05-14T08:35:41.158Z,66.97
2023-05-14T08:38:44.253Z,66.62
2023-05-14T08:41:46.825Z,67.59
2023-05-14T08:44:50.300Z,67.59
2023-05-14T08:47:53.167Z,68.15
2023-05-14T08:50:55.555Z,68.52
2023-05-14T08:53:59.313Z,67.53
2023-05-14T08:57:03.483Z,68.23
2023-05-14T09:00:11.878Z,69.12
2023-05-14T09:03:17.660Z,68.26
2023-05-14T09:06:21.595Z,68.44
2023-05-14T09:09:26.291Z,68.20
2023-05-14T09:12:28.806Z,68.08
2023-05-14T09:15:31.709Z,69.42
2023-05-14T09:18:36.262Z,67.91
2023-05-14T09:21:38.999Z,68.45
2023-05-14T09:24:41.931Z,67.07
2023-05-14T09:27:50.201Z,68.27
2023-05-14T09:30:53.664Z,68.90
2023-05-14T09:33:56.239Z,69.51
2023-05-14T09:37:03.501Z,68.94
2023-05-14T09:40:09.531Z,69.80
2023-05-14T09:43:12.218Z,67.73
2023-05-14T09:46:14.663Z,69.34
2023-05-14T09:49:17.164Z,68.67
2023-05-14T09:52:19.947Z,68.85
2023-05-14T09:55:22.518Z,69.60
2023-05-14T09:58:24.820Z,68.34
2023-05-14T10:01:29.024Z,68.93
2023-05-14T10:04:33.077Z,69.51
2023-05-14T10:07:45.206Z,69.39
2023-05-14T10:10:48.676Z,68.75
2023-05-14T10:14:18.304Z,68.91
2023-05-14T10:17:21.810Z,68.74
2023-05-14T10:20:25.409Z,69.24
2023-05-14T10:23:27.970Z,70.74
2023-05-14T10:26:31.052Z,72.12
2023-05-14T10:29:38.210Z,70.71
2023-05-14T10:32:41.919Z,70.94
2023-05-14T10:36:04.767Z,69.81
2023-05-14T10:39:09.075Z,69.70
2023-05-14T10:42:16.824Z,70.01
2023-05-14T10:45:19.173Z,69.05
2023-05-14T10:48:21.883Z,68.37
2023-05-14T10:51:24.277Z,68.73
2023-05-14T10:54:28.659Z,68.56
2023-05-14T10:57:32.071Z,67.67
2023-05-14T11:00:34.596Z,68.32
2023-05-14T11:03:42.293Z,68.75
2023-05-14T11:06:48.576Z,67.82
2023-05-14T11:09:51.368Z,69.78
2023-05-14T11:12:53.663Z,69.26
2023-05-14T11:15:56.142Z,69.16
2023-05-14T11:19:03.476Z,69.52
2023-05-14T11:22:06.653Z,69.92
2023-05-14T11:25:10.062Z,69.58
2023-05-14T11:28:12.387Z,70.33
2023-05-14T11:31:14.671Z,70.36
2023-05-14T11:34:16.954Z,70.47
2023-05-14T11:37:19.331Z,69.42
2023-05-14T11:40:21.785Z,70.50
2023-05-14T11:43:24.526Z,69.36
2023-05-14T11:46:27.691Z,69.71
2023-05-14T11:49:30.057Z,71.16
2023-05-14T11:52:37.907Z,70.00
2023-05-14T11:55:40.416Z,71.01
2023-05-14T11:58:48.657Z,70.78
2023-05-14T12:01:52.454Z,72.74
2023-05-14T12:04:54.810Z,71.87
2023-05-14T12:07:57.200Z,73.03
2023-05-14T12:11:00.700Z,72.11
2023-05-14T12:14:11.296Z,73.01
2023-05-14T12:17:16.656Z,73.54
2023-05-14T12:20:19.133Z,73.80
2023-05-14T12:23:31.910Z,74.00
2023-05-14T12:26:34.296Z,75.23
2023-05-14T12:29:38.968Z,74.54
2023-05-14T12:32:41.438Z,75.73
2023-05-14T12:35:43.875Z,75.57
2023-05-14T12:38:46.168Z,76.10
2023-05-14T12:41:48.589Z,75.56
2023-05-14T12:44:51.034Z,75.25
2023-05-14T12:47:53.450Z,76.33
2023-05-14T12:51:01.515Z,76.40
2023-05-14T12:54:04.023Z,76.50
2023-05-14T12:57:06.575Z,77.14
2023-05-14T13:00:21.264Z,77.63
2023-05-14T13:03:23.814Z,78.41
2023-05-14T13:06:26.256Z,76.98
2023-05-14T13:09:28.676Z,77.26
2023-05-14T13:12:31.012Z,78.10
2023-05-14T13:15:33.793Z,77.87
2023-05-14T13:18:36.212Z,78.40
2023-05-14T13:21:40.296Z,77.68
2023-05-14T13:24:42.827Z,78.27
2023-05-14T13:27:45.161Z,78.44
2023-05-14T13:31:07.838Z,78.16
2023-05-14T13:34:10.386Z,78.12
2023-05-14T13:37:14.734Z,78.53
2023-05-14T13:40:25.199Z,79.45
2023-05-14T13:43:28.926Z,78.81
2023-05-14T13:46:31.880Z,79.53
2023-05-14T13:49:34.247Z,79.78
2023-05-14T13:52:37.831Z,79.65
2023-05-14T13:55:40.204Z,79.22
2023-05-14T13:58:42.645Z,79.63
2023-05-14T14:01:44.971Z,80.40
2023-05-14T14:04:49.631Z,80.32
2023-05-14T14:08:04.357Z,80.53
2023-05-14T14:11:17.732Z,80.85
2023-05-14T14:14:20.213Z,80.80
2023-05-14T14:17:25.495Z,81.11
2023-05-14T14:20:28.895Z,81.34
2023-05-14T14:23:31.186Z,81.11
2023-05-14T14:26:33.498Z,81.17
2023-05-14T14:29:36.891Z,81.41
2023-05-14T14:32:39.249Z,81.60
2023-05-14T14:35:41.729Z,81.54
2023-05-14T14:38:44.173Z,81.27
2023-05-14T14:41:47.651Z,80.39
2023-05-14T14:44:49.980Z,81.27
2023-05-14T14:47:52.400Z,81.67
2023-05-14T14:50:55.946Z,81.16
2023-05-14T14:53:58.225Z,81.64
2023-05-14T14:57:00.662Z,81.25
2023-05-14T15:00:03.710Z,81.01
2023-05-14T15:03:06.772Z,80.99
2023-05-14T15:06:09.174Z,80.68
2023-05-14T15:09:11.464Z,81.71
2023-05-14T15:12:14.322Z,81.79
2023-05-14T15:15:16.609Z,81.13
2023-05-14T15:18:18.999Z,81.26
2023-05-14T15:21:21.531Z,80.67
2023-05-14T15:24:25.185Z,80.56
2023-05-14T15:27:28.248Z,80.59
2023-05-14T15:30:30.652Z,80.81
2023-05-14T15:33:34.113Z,80.89
2023-05-14T15:36:36.572Z,81.25
2023-05-14T15:39:38.777Z,81.39
2023-05-14T15:42:43.628Z,81.41
2023-05-14T15:45:49.271Z,81.58
2023-05-14T15:48:51.585Z,81.24
2023-05-14T15:51:54.646Z,81.32
2023-05-14T15:54:57.584Z,81.13
2023-05-14T15:57:59.886Z,81.06
2023-05-14T16:01:02.852Z,80.93
2023-05-14T16:04:05.317Z,81.45
2023-05-14T16:07:12.250Z,80.99
2023-05-14T16:10:14.590Z,81.52
2023-05-14T16:13:16.928Z,81.38
2023-05-14T16:16:20.832Z,81.42
2023-05-14T16:19:23.481Z,81.14
2023-05-14T16:22:25.777Z,81.69
2023-05-14T16:25:30.710Z,81.59
2023-05-14T16:28:33.049Z,82.25
2023-05-14T16:31:35.486Z,81.49
2023-05-14T16:34:37.786Z,81.92
2023-05-14T16:37:40.089Z,81.70
2023-05-14T16:40:42.904Z,81.75
2023-05-14T16:43:45.516Z,81.71
2023-05-14T16:46:48.291Z,81.99
2023-05-14T16:49:50.573Z,81.79
2023-05-14T16:52:53.016Z,81.89
2023-05-14T16:55:55.262Z,82.05
2023-05-14T16:59:00.894Z,82.01
2023-05-14T17:02:03.926Z,81.90
2023-05-14T17:05:07.967Z,81.52
2023-05-14T17:08:10.455Z,81.90
2023-05-14T17:11:12.949Z,81.34
2023-05-14T17:14:15.353Z,81.28
2023-05-14T17:17:17.729Z,81.50
2023-05-14T17:20:20.300Z,82.03
2023-05-14T17:23:22.574Z,81.96
2023-05-14T17:26:26.404Z,82.25
2023-05-14T17:29:28.676Z,82.26
2023-05-14T17:32:31.450Z,82.19
2023-05-14T17:35:36.449Z,81.95
2023-05-14T17:38:39.184Z,82.16
2023-05-14T17:41:42.171Z,82.54
2023-05-14T17:44:45.337Z,82.52
2023-05-14T17:47:49.795Z,83.24
2023-05-14T17:50:52.263Z,83.26
2023-05-14T17:53:54.562Z,83.14
2023-05-14T17:56:56.901Z,83.13
2023-05-14T17:59:59.363Z,82.47
2023-05-14T18:03:01.662Z,82.91
2023-05-14T18:06:04.620Z,83.07
2023-05-14T18:09:06.947Z,82.97
2023-05-14T18:12:09.225Z,82.52
2023-05-14T18:15:11.558Z,83.09
2023-05-14T18:18:17.203Z,82.92
2023-05-14T18:21:19.491Z,82.79
2023-05-14T18:24:22.374Z,82.95
2023-05-14T18:27:24.748Z,83.42
2023-05-14T18:30:27.133Z,83.61
2023-05-14T18:33:29.648Z,84.05
2023-05-14T18:36:32.081Z,83.72
2023-05-14T18:39:34.370Z,83.68
2023-05-14T18:42:36.678Z,83.84
2023-05-14T18:45:42.645Z,83.50
2023-05-14T18:48:45.044Z,84.01
2023-05-14T18:51:47.336Z,84.06
2023-05-14T18:54:50.908Z,83.16
2023-05-14T18:57:53.227Z,83.13
2023-05-14T19:00:57.905Z,83.48
2023-05-14T19:04:01.283Z,83.84
2023-05-14T19:07:05.045Z,83.53
2023-05-14T19:10:08.028Z,83.47
2023-05-14T19:13:10.346Z,83.68
2023-05-14T19:16:13.254Z,83.95
2023-05-14T19:19:15.770Z,84.41
2023-05-14T19:22:19.533Z,84.14
2023-05-14T19:25:21.905Z,84.27
2023-05-14T19:28:24.345Z,84.33
2023-05-14T19:31:27.153Z,84.64
2023-05-14T19:34:29.438Z,84.28
2023-05-14T19:37:32.017Z,84.17
2023-05-14T19:40:34.297Z,84.38
2023-05-14T19:43:36.558Z,84.40
2023-05-14T19:46:38.914Z,84.45
2023-05-14T19:49:41.382Z,84.11
2023-05-14T19:52:43.716Z,84.33
2023-05-14T19:55:46.025Z,84.96
2023-05-14T19:58:48.408Z,84.53
2023-05-14T20:01:50.809Z,84.30
2023-05-14T20:04:55.649Z,84.38
2023-05-14T20:07:58.019Z,84.38
2023-05-14T20:11:03.322Z,84.32
2023-05-14T20:14:05.820Z,84.25
2023-05-14T20:17:08.150Z,84.67
2023-05-14T20:20:11.931Z,84.40
2023-05-14T20:23:14.200Z,84.29
2023-05-14T20:26:16.507Z,84.13
2023-05-14T20:29:18.828Z,84.31
2023-05-14T20:32:24.928Z,84.27
2023-05-14T20:35:27.631Z,84.39
2023-05-14T20:38:31.319Z,84.12
2023-05-14T20:41:33.628Z,83.55
2023-05-14T20:44:35.963Z,83.82
2023-05-14T20:47:38.376Z,83.58
2023-05-14T20:50:40.674Z,83.14
2023-05-14T20:53:43.004Z,83.51
2023-05-14T20:56:45.691Z,83.35
2023-05-14T20:59:49.030Z,83.06
2023-05-14T21:02:51.579Z,83.48
2023-05-14T21:05:56.093Z,83.64
2023-05-14T21:08:58.426Z,83.51
2023-05-14T21:12:00.732Z,83.98
2023-05-14T21:15:03.220Z,83.90
2023-05-14T21:18:05.581Z,84.26
2023-05-14T21:21:07.900Z,84.47
2023-05-14T21:24:10.176Z,84.12
2023-05-14T21:27:12.504Z,84.41
2023-05-14T21:30:15.104Z,84.36
2023-05-14T21:33:17.640Z,84.39
2023-05-14T21:36:21.189Z,84.57
2023-05-14T21:39:23.469Z,84.19
2023-05-14T21:42:25.784Z,84.17
2023-05-14T21:45:28.396Z,84.17
2023-05-14T21:48:31.104Z,84.29
2023-05-14T21:51:33.756Z,84.18
2023-05-14T21:54:36.002Z,84.28
2023-05-14T21:57:38.271Z,84.18
2023-05-14T22:00:41.229Z,84.26
2023-05-14T22:03:43.573Z,84.20
2023-05-14T22:06:46.102Z,84.11
2023-05-14T22:09:48.936Z,83.86
2023-05-14T22:12:52.379Z,84.27
2023-05-14T22:16:01.411Z,84.13
2023-05-14T22:19:12.005Z,83.99
2023-05-14T22:22:14.329Z,84.21
2023-05-14T22:25:16.654Z,83.88
2023-05-14T22:28:20.044Z,84.26
2023-05-14T22:31:22.348Z,84.18
2023-05-14T22:34:24.647Z,84.09
2023-05-14T22:37:26.909Z,84.07
2023-05-14T22:40:29.184Z,84.00
2023-05-14T22:43:31.523Z,83.67
2023-05-14T22:46:33.918Z,84.16
2023-05-14T22:49:36.296Z,84.28
2023-05-14T22:52:39.352Z,84.09
2023-05-14T22:55:41.646Z,84.20
2023-05-14T22:58:44.437Z,84.31
2023-05-14T23:01:46.758Z,83.40
2023-05-14T23:04:49.162Z,84.27
2023-05-14T23:07:52.845Z,84.26
2023-05-14T23:10:55.132Z,84.32
2023-05-14T23:13:57.421Z,83.73
2023-05-14T23:16:59.793Z,83.71
2023-05-14T23:20:02.130Z,83.53
2023-05-14T23:23:05.086Z,83.10
2023-05-14T23:26:07.442Z,83.55
2023-05-14T23:29:09.803Z,83.61
2023-05-14T23:32:12.184Z,83.43
2023-05-14T23:35:14.534Z,82.95
2023-05-14T23:38:16.840Z,82.94
2023-05-14T23:41:19.180Z,82.83
2023-05-14T23:44:21.635Z,82.71
2023-05-14T23:47:23.971Z,82.64
2023-05-14T23:50:26.330Z,82.55
2023-05-14T23:53:28.564Z,81.97
2023-05-14T23:56:31.053Z,82.36
2023-05-14T23:59:33.357Z,82.22
